KFDK/FDK METAR and TAF weather

Enter ICAO airport designator
Station Type Date Time Source
KFDK METAR 2020/11/27 03:15 UTC NOAA

KFDK 270315Z AUTO 00000KT 10SM CLR 07/05 A3010 RMK AO2


Station Type Date Time Source
KFDK Decoded METAR 2020/11/27 03:15 UTC NOAA

Frederick, Frederick Municipal Airport, MD, United States (KFDK) 39-25-03N 077-22-28W
Nov 26, 2020 - 10:15 PM EST / 2020.11.27 0315 UTC
Wind: Calm:0
Visibility: 10 mile(s):0
Sky conditions: clear
Temperature: 44 F (7 C)
Dew Point: 41 F (5 C)
Relative Humidity: 87%
Pressure (altimeter): 30.1 in. Hg (1019 hPa)
ob: KFDK 270315Z AUTO 00000KT 10SM CLR 07/05 A3010 RMK AO2
cycle: 3

Station Type Date Time Source
KFDK TAF UTC NOAA

Error!

Example: see airport list